sensor_id;sensor_type;location;lat;lon;timestamp;pressure;altitude;pressure_sealevel;temperature;humidity
68994;BME280;56054;50.968;5.816;2023-04-24T00:01:51;99349.28;;;9.89;100.00
68994;BME280;56054;50.968;5.816;2023-04-24T00:04:52;99360.31;;;9.85;100.00
68994;BME280;56054;50.968;5.816;2023-04-24T00:07:52;99341.84;;;9.77;100.00
68994;BME280;56054;50.968;5.816;2023-04-24T00:10:52;99358.25;;;9.76;100.00
68994;BME280;56054;50.968;5.816;2023-04-24T00:13:53;99365.25;;;9.59;100.00
68994;BME280;56054;50.968;5.816;2023-04-24T00:20:02;99364.09;;;9.53;100.00
68994;BME280;56054;50.968;5.816;2023-04-24T00:23:03;99361.44;;;9.51;100.00
68994;BME280;56054;50.968;5.816;2023-04-24T00:26:03;99369.81;;;9.46;100.00
68994;BME280;56054;50.968;5.816;2023-04-24T00:29:03;99360.91;;;9.39;100.00
68994;BME280;56054;50.968;5.816;2023-04-24T00:32:04;99360.34;;;9.46;100.00
68994;BME280;56054;50.968;5.816;2023-04-24T00:35:07;99362.72;;;9.41;100.00
68994;BME280;56054;50.968;5.816;2023-04-24T00:38:07;99364.22;;;9.36;100.00
68994;BME280;56054;50.968;5.816;2023-04-24T00:41:08;99369.22;;;9.32;100.00
68994;BME280;56054;50.968;5.816;2023-04-24T00:44:08;99359.72;;;9.32;100.00
68994;BME280;56054;50.968;5.816;2023-04-24T00:47:09;99368.47;;;9.34;100.00
68994;BME280;56054;50.968;5.816;2023-04-24T00:50:10;99359.59;;;9.29;100.00
68994;BME280;56054;50.968;5.816;2023-04-24T00:53:11;99359.28;;;9.23;100.00
68994;BME280;56054;50.968;5.816;2023-04-24T00:56:11;99357.03;;;9.31;100.00
68994;BME280;56054;50.968;5.816;2023-04-24T00:59:13;99363.63;;;9.24;100.00
68994;BME280;56054;50.968;5.816;2023-04-24T01:02:13;99358.44;;;9.24;100.00
68994;BME280;56054;50.968;5.816;2023-04-24T01:05:15;99371.59;;;9.27;100.00
68994;BME280;56054;50.968;5.816;2023-04-24T01:08:15;99362.84;;;9.25;100.00
68994;BME280;56054;50.968;5.816;2023-04-24T01:11:16;99362.72;;;9.22;100.00
68994;BME280;56054;50.968;5.816;2023-04-24T01:14:20;99356.09;;;9.29;100.00
68994;BME280;56054;50.968;5.816;2023-04-24T01:17:23;99350.91;;;9.29;100.00
68994;BME280;56054;50.968;5.816;2023-04-24T01:20:24;99352.47;;;9.25;100.00
68994;BME280;56054;50.968;5.816;2023-04-24T01:23:26;99344.03;;;9.29;100.00
68994;BME280;56054;50.968;5.816;2023-04-24T01:26:26;99342.91;;;9.24;100.00
68994;BME280;56054;50.968;5.816;2023-04-24T01:32:50;99345.38;;;9.21;100.00
68994;BME280;56054;50.968;5.816;2023-04-24T01:35:51;99347.28;;;9.25;100.00
68994;BME280;56054;50.968;5.816;2023-04-24T01:38:52;99345.72;;;9.29;100.00
68994;BME280;56054;50.968;5.816;2023-04-24T01:41:52;99343.00;;;9.26;100.00
68994;BME280;56054;50.968;5.816;2023-04-24T01:44:53;99342.19;;;9.27;100.00
68994;BME280;56054;50.968;5.816;2023-04-24T01:47:54;99341.16;;;9.23;100.00
68994;BME280;56054;50.968;5.816;2023-04-24T01:50:56;99350.63;;;9.23;100.00
68994;BME280;56054;50.968;5.816;2023-04-24T01:53:56;99345.38;;;9.21;100.00
68994;BME280;56054;50.968;5.816;2023-04-24T01:56:57;99342.84;;;9.23;100.00
68994;BME280;56054;50.968;5.816;2023-04-24T01:59:58;99335.09;;;9.23;100.00
68994;BME280;56054;50.968;5.816;2023-04-24T02:02:58;99342.03;;;9.24;100.00
68994;BME280;56054;50.968;5.816;2023-04-24T02:06:00;99342.03;;;9.24;100.00
68994;BME280;56054;50.968;5.816;2023-04-24T02:09:01;99336.72;;;9.20;100.00
68994;BME280;56054;50.968;5.816;2023-04-24T02:12:02;99340.19;;;9.21;100.00
68994;BME280;56054;50.968;5.816;2023-04-24T02:15:03;99340.47;;;9.27;100.00
68994;BME280;56054;50.968;5.816;2023-04-24T02:18:04;99344.69;;;9.25;100.00
68994;BME280;56054;50.968;5.816;2023-04-24T02:21:06;99350.69;;;9.24;100.00
68994;BME280;56054;50.968;5.816;2023-04-24T02:24:06;99349.06;;;9.26;100.00
68994;BME280;56054;50.968;5.816;2023-04-24T02:27:09;99341.16;;;9.23;100.00
68994;BME280;56054;50.968;5.816;2023-04-24T02:30:10;99341.22;;;9.25;100.00
68994;BME280;56054;50.968;5.816;2023-04-24T02:33:11;99338.56;;;9.23;100.00
68994;BME280;56054;50.968;5.816;2023-04-24T02:36:12;99341.97;;;9.22;100.00
68994;BME280;56054;50.968;5.816;2023-04-24T02:39:12;99345.97;;;9.15;100.00
68994;BME280;56054;50.968;5.816;2023-04-24T02:42:14;99352.78;;;9.13;100.00
68994;BME280;56054;50.968;5.816;2023-04-24T02:45:14;99352.72;;;9.12;100.00
68994;BME280;56054;50.968;5.816;2023-04-24T02:51:31;99343.31;;;9.14;100.00
68994;BME280;56054;50.968;5.816;2023-04-24T02:54:32;99340.44;;;9.08;100.00
68994;BME280;56054;50.968;5.816;2023-04-24T03:01:20;99352.22;;;9.01;100.00
68994;BME280;56054;50.968;5.816;2023-04-24T03:04:21;99332.31;;;9.00;100.00
68994;BME280;56054;50.968;5.816;2023-04-24T03:10:33;99343.44;;;8.97;100.00
68994;BME280;56054;50.968;5.816;2023-04-24T03:13:33;99347.66;;;8.95;100.00
68994;BME280;56054;50.968;5.816;2023-04-24T03:16:34;99346.69;;;8.93;100.00
68994;BME280;56054;50.968;5.816;2023-04-24T03:19:34;99343.03;;;8.90;100.00
68994;BME280;56054;50.968;5.816;2023-04-24T03:22:41;99354.84;;;8.83;100.00
68994;BME280;56054;50.968;5.816;2023-04-24T03:25:42;99362.38;;;8.78;100.00
68994;BME280;56054;50.968;5.816;2023-04-24T03:28:43;99358.91;;;8.78;100.00
68994;BME280;56054;50.968;5.816;2023-04-24T03:31:44;99363.78;;;8.72;100.00
68994;BME280;56054;50.968;5.816;2023-04-24T03:34:44;99352.69;;;8.74;100.00
68994;BME280;56054;50.968;5.816;2023-04-24T03:37:49;99358.31;;;8.66;100.00
68994;BME280;56054;50.968;5.816;2023-04-24T03:41:18;99368.44;;;8.61;100.00
68994;BME280;56054;50.968;5.816;2023-04-24T03:44:23;99356.53;;;8.65;100.00
68994;BME280;56054;50.968;5.816;2023-04-24T03:58:02;99364.16;;;8.62;100.00
68994;BME280;56054;50.968;5.816;2023-04-24T04:01:03;99362.34;;;8.61;100.00
68994;BME280;56054;50.968;5.816;2023-04-24T04:04:09;99355.34;;;8.58;100.00
68994;BME280;56054;50.968;5.816;2023-04-24T04:07:11;99358.66;;;8.55;100.00
68994;BME280;56054;50.968;5.816;2023-04-24T04:10:11;99374.19;;;8.55;100.00
68994;BME280;56054;50.968;5.816;2023-04-24T04:13:12;99364.53;;;8.51;100.00
68994;BME280;56054;50.968;5.816;2023-04-24T04:16:13;99372.06;;;8.47;100.00
68994;BME280;56054;50.968;5.816;2023-04-24T04:19:13;99378.03;;;8.46;100.00
68994;BME280;56054;50.968;5.816;2023-04-24T04:22:13;99375.53;;;8.47;100.00
68994;BME280;56054;50.968;5.816;2023-04-24T04:25:23;99366.88;;;8.47;100.00
68994;BME280;56054;50.968;5.816;2023-04-24T04:28:23;99371.19;;;8.46;100.00
68994;BME280;56054;50.968;5.816;2023-04-24T04:31:25;99361.94;;;8.51;100.00
68994;BME280;56054;50.968;5.816;2023-04-24T04:34:26;99387.81;;;8.51;100.00
68994;BME280;56054;50.968;5.816;2023-04-24T04:37:27;99383.28;;;8.47;100.00
68994;BME280;56054;50.968;5.816;2023-04-24T04:40:39;99377.09;;;8.44;100.00
68994;BME280;56054;50.968;5.816;2023-04-24T04:43:40;99382.78;;;8.38;100.00
68994;BME280;56054;50.968;5.816;2023-04-24T04:46:42;99382.97;;;8.41;100.00
68994;BME280;56054;50.968;5.816;2023-04-24T04:50:04;99382.78;;;8.38;100.00
68994;BME280;56054;50.968;5.816;2023-04-24T04:53:07;99386.53;;;8.43;100.00
68994;BME280;56054;50.968;5.816;2023-04-24T04:56:11;99402.47;;;8.34;100.00
68994;BME280;56054;50.968;5.816;2023-04-24T04:59:18;99403.19;;;8.32;100.00
68994;BME280;56054;50.968;5.816;2023-04-24T05:02:20;99402.16;;;8.28;100.00
68994;BME280;56054;50.968;5.816;2023-04-24T05:05:20;99400.94;;;8.22;100.00
68994;BME280;56054;50.968;5.816;2023-04-24T05:08:21;99410.34;;;8.20;100.00
68994;BME280;56054;50.968;5.816;2023-04-24T05:11:21;99397.97;;;8.14;100.00
68994;BME280;56054;50.968;5.816;2023-04-24T05:14:22;99411.81;;;8.14;100.00
68994;BME280;56054;50.968;5.816;2023-04-24T05:17:23;99412.31;;;8.07;100.00
68994;BME280;56054;50.968;5.816;2023-04-24T05:20:25;99412.31;;;8.07;100.00
68994;BME280;56054;50.968;5.816;2023-04-24T05:23:31;99410.34;;;8.03;100.00
68994;BME280;56054;50.968;5.816;2023-04-24T05:26:32;99417.97;;;8.00;100.00
68994;BME280;56054;50.968;5.816;2023-04-24T05:29:33;99425.16;;;8.06;100.00
68994;BME280;56054;50.968;5.816;2023-04-24T05:32:34;99419.81;;;8.03;100.00
68994;BME280;56054;50.968;5.816;2023-04-24T05:35:34;99435.88;;;8.13;100.00
68994;BME280;56054;50.968;5.816;2023-04-24T05:38:36;99442.75;;;8.13;100.00
68994;BME280;56054;50.968;5.816;2023-04-24T05:41:36;99443.00;;;8.18;100.00
68994;BME280;56054;50.968;5.816;2023-04-24T05:44:43;99452.22;;;8.12;100.00
68994;BME280;56054;50.968;5.816;2023-04-24T05:47:44;99467.75;;;8.12;100.00
68994;BME280;56054;50.968;5.816;2023-04-24T05:50:45;99461.59;;;8.10;100.00
68994;BME280;56054;50.968;5.816;2023-04-24T05:53:46;99467.81;;;8.14;100.00
68994;BME280;56054;50.968;5.816;2023-04-24T05:56:46;99465.81;;;8.08;100.00
68994;BME280;56054;50.968;5.816;2023-04-24T05:59:51;99467.56;;;8.09;100.00
68994;BME280;56054;50.968;5.816;2023-04-24T06:02:54;99481.97;;;8.04;100.00
68994;BME280;56054;50.968;5.816;2023-04-24T06:05:55;99483.28;;;8.12;100.00
68994;BME280;56054;50.968;5.816;2023-04-24T06:08:57;99490.06;;;8.10;100.00
68994;BME280;56054;50.968;5.816;2023-04-24T06:11:59;99492.31;;;8.04;100.00
68994;BME280;56054;50.968;5.816;2023-04-24T06:15:08;99498.47;;;8.06;100.00
68994;BME280;56054;50.968;5.816;2023-04-24T06:18:27;99495.31;;;7.96;100.00
68994;BME280;56054;50.968;5.816;2023-04-24T06:21:27;99500.06;;;8.04;100.00
68994;BME280;56054;50.968;5.816;2023-04-24T06:24:29;99507.03;;;8.05;100.00
68994;BME280;56054;50.968;5.816;2023-04-24T06:27:30;99521.50;;;8.02;100.00
68994;BME280;56054;50.968;5.816;2023-04-24T06:30:32;99515.19;;;7.97;100.00
68994;BME280;56054;50.968;5.816;2023-04-24T06:33:32;99524.75;;;7.98;100.00
68994;BME280;56054;50.968;5.816;2023-04-24T06:36:33;99546.06;;;7.93;100.00
68994;BME280;56054;50.968;5.816;2023-04-24T06:43:21;99547.56;;;7.90;100.00
68994;BME280;56054;50.968;5.816;2023-04-24T06:46:22;99551.34;;;7.80;100.00
68994;BME280;56054;50.968;5.816;2023-04-24T06:49:22;99562.53;;;7.79;100.00
68994;BME280;56054;50.968;5.816;2023-04-24T06:52:23;99574.41;;;7.76;100.00
68994;BME280;56054;50.968;5.816;2023-04-24T06:55:23;99581.63;;;7.66;100.00
68994;BME280;56054;50.968;5.816;2023-04-24T06:58:24;99576.88;;;7.74;100.00
68994;BME280;56054;50.968;5.816;2023-04-24T07:01:25;99588.50;;;7.66;100.00
68994;BME280;56054;50.968;5.816;2023-04-24T07:04:25;99592.88;;;7.67;100.00
68994;BME280;56054;50.968;5.816;2023-04-24T07:07:26;99596.16;;;7.64;100.00
68994;BME280;56054;50.968;5.816;2023-04-24T07:10:27;99608.66;;;7.57;100.00
68994;BME280;56054;50.968;5.816;2023-04-24T07:13:28;99613.91;;;7.58;100.00
68994;BME280;56054;50.968;5.816;2023-04-24T07:16:29;99616.97;;;7.51;100.00
68994;BME280;56054;50.968;5.816;2023-04-24T07:19:33;99614.19;;;7.48;100.00
68994;BME280;56054;50.968;5.816;2023-04-24T07:22:33;99624.78;;;7.53;100.00
68994;BME280;56054;50.968;5.816;2023-04-24T07:25:34;99635.22;;;7.54;100.00
68994;BME280;56054;50.968;5.816;2023-04-24T07:28:34;99644.13;;;7.59;100.00
68994;BME280;56054;50.968;5.816;2023-04-24T07:31:35;99643.00;;;7.54;100.00
68994;BME280;56054;50.968;5.816;2023-04-24T07:34:36;99653.22;;;7.53;100.00
68994;BME280;56054;50.968;5.816;2023-04-24T07:37:37;99651.72;;;7.56;100.00
68994;BME280;56054;50.968;5.816;2023-04-24T07:40:38;99666.59;;;7.60;100.00
68994;BME280;56054;50.968;5.816;2023-04-24T07:43:38;99674.53;;;7.63;100.00
68994;BME280;56054;50.968;5.816;2023-04-24T07:46:40;99684.06;;;7.64;100.00
68994;BME280;56054;50.968;5.816;2023-04-24T07:49:41;99688.63;;;7.68;100.00
68994;BME280;56054;50.968;5.816;2023-04-24T07:52:41;99704.13;;;7.68;100.00
68994;BME280;56054;50.968;5.816;2023-04-24T07:56:04;99704.03;;;7.67;100.00
68994;BME280;56054;50.968;5.816;2023-04-24T07:59:05;99709.03;;;7.64;100.00
68994;BME280;56054;50.968;5.816;2023-04-24T08:02:06;99715.44;;;7.70;100.00
68994;BME280;56054;50.968;5.816;2023-04-24T08:05:06;99717.94;;;7.69;100.00
68994;BME280;56054;50.968;5.816;2023-04-24T08:08:07;99720.59;;;7.70;100.00
68994;BME280;56054;50.968;5.816;2023-04-24T08:11:07;99730.00;;;7.68;100.00
68994;BME280;56054;50.968;5.816;2023-04-24T08:14:08;99737.91;;;7.71;100.00
68994;BME280;56054;50.968;5.816;2023-04-24T08:17:08;99738.69;;;7.70;100.00
68994;BME280;56054;50.968;5.816;2023-04-24T08:20:10;99739.50;;;7.69;100.00
68994;BME280;56054;50.968;5.816;2023-04-24T08:23:11;99746.38;;;7.69;100.00
68994;BME280;56054;50.968;5.816;2023-04-24T08:26:12;99755.31;;;7.74;100.00
68994;BME280;56054;50.968;5.816;2023-04-24T08:29:14;99761.53;;;7.78;100.00
68994;BME280;56054;50.968;5.816;2023-04-24T08:32:21;99771.16;;;7.80;100.00
68994;BME280;56054;50.968;5.816;2023-04-24T08:35:21;99781.97;;;7.73;100.00
68994;BME280;56054;50.968;5.816;2023-04-24T08:38:22;99784.81;;;7.78;100.00
68994;BME280;56054;50.968;5.816;2023-04-24T08:41:22;99786.88;;;7.83;100.00
68994;BME280;56054;50.968;5.816;2023-04-24T08:44:23;99794.81;;;7.86;100.00
68994;BME280;56054;50.968;5.816;2023-04-24T08:47:23;99796.34;;;7.83;100.00
68994;BME280;56054;50.968;5.816;2023-04-24T08:50:24;99798.72;;;7.80;100.00
68994;BME280;56054;50.968;5.816;2023-04-24T08:53:28;99807.84;;;7.88;100.00
68994;BME280;56054;50.968;5.816;2023-04-24T08:56:33;99816.66;;;7.91;100.00
68994;BME280;56054;50.968;5.816;2023-04-24T08:59:34;99822.47;;;8.02;100.00
68994;BME280;56054;50.968;5.816;2023-04-24T09:02:35;99820.06;;;8.05;100.00
68994;BME280;56054;50.968;5.816;2023-04-24T09:05:35;99825.25;;;8.05;100.00
68994;BME280;56054;50.968;5.816;2023-04-24T09:08:36;99821.38;;;8.13;100.00
68994;BME280;56054;50.968;5.816;2023-04-24T09:11:38;99834.69;;;8.20;100.00
68994;BME280;56054;50.968;5.816;2023-04-24T09:14:39;99835.22;;;8.29;100.00
68994;BME280;56054;50.968;5.816;2023-04-24T09:17:39;99843.09;;;8.45;100.00
68994;BME280;56054;50.968;5.816;2023-04-24T09:24:00;99840.56;;;8.62;100.00
68994;BME280;56054;50.968;5.816;2023-04-24T09:27:01;99852.41;;;8.73;100.00
68994;BME280;56054;50.968;5.816;2023-04-24T09:30:02;99846.03;;;8.83;100.00
68994;BME280;56054;50.968;5.816;2023-04-24T09:33:13;99862.16;;;8.77;100.00
68994;BME280;56054;50.968;5.816;2023-04-24T09:36:17;99853.41;;;8.75;100.00
68994;BME280;56054;50.968;5.816;2023-04-24T09:39:18;99867.25;;;8.75;100.00
68994;BME280;56054;50.968;5.816;2023-04-24T09:42:19;99862.09;;;8.75;100.00
68994;BME280;56054;50.968;5.816;2023-04-24T09:45:20;99871.41;;;8.88;100.00
68994;BME280;56054;50.968;5.816;2023-04-24T09:48:31;99863.81;;;8.91;100.00
68994;BME280;56054;50.968;5.816;2023-04-24T09:51:35;99879.72;;;8.97;100.00
68994;BME280;56054;50.968;5.816;2023-04-24T09:54:37;99879.25;;;8.90;100.00
68994;BME280;56054;50.968;5.816;2023-04-24T09:57:50;99875.00;;;8.90;100.00
68994;BME280;56054;50.968;5.816;2023-04-24T10:00:53;99879.19;;;8.88;100.00
68994;BME280;56054;50.968;5.816;2023-04-24T10:03:54;99896.34;;;8.86;100.00
68994;BME280;56054;50.968;5.816;2023-04-24T10:06:56;99903.03;;;8.83;100.00
68994;BME280;56054;50.968;5.816;2023-04-24T10:09:57;99902.81;;;8.48;100.00
68994;BME280;56054;50.968;5.816;2023-04-24T10:12:59;99910.34;;;8.44;100.00
68994;BME280;56054;50.968;5.816;2023-04-24T10:16:00;99907.19;;;8.49;100.00
68994;BME280;56054;50.968;5.816;2023-04-24T10:19:01;99911.75;;;8.53;100.00
68994;BME280;56054;50.968;5.816;2023-04-24T10:22:03;99919.41;;;8.67;100.00
68994;BME280;56054;50.968;5.816;2023-04-24T10:25:04;99917.44;;;8.77;100.00
68994;BME280;56054;50.968;5.816;2023-04-24T10:28:06;99914.03;;;8.93;100.00
68994;BME280;56054;50.968;5.816;2023-04-24T10:31:07;99924.16;;;9.20;100.00
68994;BME280;56054;50.968;5.816;2023-04-24T10:34:09;99913.34;;;9.60;100.00
68994;BME280;56054;50.968;5.816;2023-04-24T11:14:16;99967.13;;;10.79;100.00
68994;BME280;56054;50.968;5.816;2023-04-24T11:17:36;99972.34;;;10.62;100.00
68994;BME280;56054;50.968;5.816;2023-04-24T11:20:42;99977.28;;;10.92;100.00
68994;BME280;56054;50.968;5.816;2023-04-24T11:23:42;99986.88;;;11.11;100.00
68994;BME280;56054;50.968;5.816;2023-04-24T11:26:44;99982.56;;;11.11;100.00
68994;BME280;56054;50.968;5.816;2023-04-24T11:29:58;99989.59;;;11.12;100.00
68994;BME280;56054;50.968;5.816;2023-04-24T11:33:03;99990.16;;;11.07;100.00
68994;BME280;56054;50.968;5.816;2023-04-24T11:36:04;99991.03;;;10.89;100.00
68994;BME280;56054;50.968;5.816;2023-04-24T11:39:19;99992.03;;;10.75;100.00
68994;BME280;56054;50.968;5.816;2023-04-24T11:42:21;99997.97;;;10.73;100.00
68994;BME280;56054;50.968;5.816;2023-04-24T11:45:27;100004.88;;;11.06;100.00
68994;BME280;56054;50.968;5.816;2023-04-24T11:48:50;100010.19;;;10.91;100.00
68994;BME280;56054;50.968;5.816;2023-04-24T11:55:39;100014.78;;;11.31;100.00
68994;BME280;56054;50.968;5.816;2023-04-24T11:58:44;100011.69;;;11.04;100.00
68994;BME280;56054;50.968;5.816;2023-04-24T12:01:45;100012.50;;;10.85;100.00
68994;BME280;56054;50.968;5.816;2023-04-24T12:04:45;100028.88;;;10.84;100.00
68994;BME280;56054;50.968;5.816;2023-04-24T12:07:52;100037.13;;;11.10;100.00
68994;BME280;56054;50.968;5.816;2023-04-24T12:10:53;100038.44;;;11.55;100.00
68994;BME280;56054;50.968;5.816;2023-04-24T12:13:53;100026.94;;;11.50;100.00
68994;BME280;56054;50.968;5.816;2023-04-24T12:16:54;100032.44;;;11.56;100.00
68994;BME280;56054;50.968;5.816;2023-04-24T12:20:05;100028.63;;;11.68;100.00
68994;BME280;56054;50.968;5.816;2023-04-24T12:23:06;100040.25;;;11.56;97.83
68994;BME280;56054;50.968;5.816;2023-04-24T12:26:08;100035.72;;;11.52;95.75
68994;BME280;56054;50.968;5.816;2023-04-24T12:29:08;100039.44;;;11.40;92.21
68994;BME280;56054;50.968;5.816;2023-04-24T12:32:16;100034.22;;;11.57;91.97
68994;BME280;56054;50.968;5.816;2023-04-24T12:35:21;100035.50;;;11.66;92.05
68994;BME280;56054;50.968;5.816;2023-04-24T12:38:23;100040.38;;;11.60;90.35
68994;BME280;56054;50.968;5.816;2023-04-24T12:41:24;100044.63;;;11.93;92.19
68994;BME280;56054;50.968;5.816;2023-04-24T12:44:34;100052.50;;;11.77;86.35
68994;BME280;56054;50.968;5.816;2023-04-24T12:47:35;100054.50;;;11.83;87.31
68994;BME280;56054;50.968;5.816;2023-04-24T12:50:37;100041.06;;;11.91;86.07
68994;BME280;56054;50.968;5.816;2023-04-24T12:53:38;100051.50;;;12.11;86.95
68994;BME280;56054;50.968;5.816;2023-04-24T13:00:22;100042.16;;;11.78;84.75
68994;BME280;56054;50.968;5.816;2023-04-24T13:03:24;100061.06;;;11.56;84.29
68994;BME280;56054;50.968;5.816;2023-04-24T13:06:24;100057.78;;;11.96;86.82
68994;BME280;56054;50.968;5.816;2023-04-24T13:09:24;100059.44;;;12.33;85.29
68994;BME280;56054;50.968;5.816;2023-04-24T13:12:25;100063.88;;;12.34;82.06
68994;BME280;56054;50.968;5.816;2023-04-24T13:15:26;100055.88;;;12.51;84.56
68994;BME280;56054;50.968;5.816;2023-04-24T13:18:26;100060.50;;;12.37;82.35
68994;BME280;56054;50.968;5.816;2023-04-24T13:21:27;100060.22;;;12.31;80.73
68994;BME280;56054;50.968;5.816;2023-04-24T13:24:27;100065.63;;;12.16;80.10
68994;BME280;56054;50.968;5.816;2023-04-24T13:27:28;100072.94;;;12.05;78.89
68994;BME280;56054;50.968;5.816;2023-04-24T13:30:28;100065.91;;;12.22;79.45
68994;BME280;56054;50.968;5.816;2023-04-24T13:33:28;100070.59;;;12.49;81.84
68994;BME280;56054;50.968;5.816;2023-04-24T13:36:29;100070.44;;;12.46;81.23
68994;BME280;56054;50.968;5.816;2023-04-24T13:39:30;100064.88;;;12.18;81.07
68994;BME280;56054;50.968;5.816;2023-04-24T13:42:30;100067.06;;;12.29;81.61
68994;BME280;56054;50.968;5.816;2023-04-24T13:45:31;100064.19;;;12.42;81.74
68994;BME280;56054;50.968;5.816;2023-04-24T13:48:31;100070.44;;;12.46;83.10
68994;BME280;56054;50.968;5.816;2023-04-24T13:51:32;100060.28;;;12.32;83.15
68994;BME280;56054;50.968;5.816;2023-04-24T13:54:33;100071.25;;;12.25;84.39
68994;BME280;56054;50.968;5.816;2023-04-24T13:57:33;100069.97;;;12.35;81.13
68994;BME280;56054;50.968;5.816;2023-04-24T14:00:34;100071.69;;;12.54;81.19
